createdAt,value
2024-01-27T00:00:50.260Z,51.93
2024-01-27T00:01:50.166Z,52.42
2024-01-27T00:02:50.267Z,52.48
2024-01-27T00:03:50.280Z,51.57
2024-01-27T00:04:50.963Z,52.60
2024-01-27T00:05:50.363Z,52.44
2024-01-27T00:06:50.528Z,53.67
2024-01-27T00:07:50.423Z,53.23
2024-01-27T00:08:50.474Z,53.54
2024-01-27T00:09:50.519Z,53.47
2024-01-27T00:10:50.589Z,53.30
2024-01-27T00:11:50.614Z,51.17
2024-01-27T00:12:50.650Z,50.92
2024-01-27T00:13:50.657Z,51.62
2024-01-27T00:14:50.790Z,53.77
2024-01-27T00:15:50.746Z,52.93
2024-01-27T00:16:50.786Z,52.71
2024-01-27T00:17:50.890Z,51.63
2024-01-27T00:18:50.993Z,51.56
2024-01-27T00:19:51.205Z,51.95
2024-01-27T00:20:50.917Z,53.12
2024-01-27T00:21:50.993Z,53.28
2024-01-27T00:22:51.029Z,51.98
2024-01-27T00:23:51.102Z,52.04
2024-01-27T00:24:51.112Z,53.32
2024-01-27T00:25:51.116Z,53.62
2024-01-27T00:26:51.255Z,52.20
2024-01-27T00:27:51.273Z,52.00
2024-01-27T00:28:51.256Z,52.47
2024-01-27T00:29:51.729Z,53.50
2024-01-27T00:30:51.403Z,52.02
2024-01-27T00:31:51.349Z,50.97
2024-01-27T00:32:51.513Z,52.21
2024-01-27T00:33:51.524Z,51.62
2024-01-27T00:34:51.585Z,51.58
2024-01-27T00:35:51.580Z,52.09
2024-01-27T00:36:51.626Z,52.11
2024-01-27T00:37:51.648Z,51.83
2024-01-27T00:38:51.772Z,52.60
2024-01-27T00:39:51.790Z,52.80
2024-01-27T00:40:51.790Z,52.28
2024-01-27T00:41:51.865Z,52.72
2024-01-27T00:42:51.856Z,52.25
2024-01-27T00:43:51.937Z,53.10
2024-01-27T00:44:52.018Z,52.03
2024-01-27T00:45:52.042Z,50.00
2024-01-27T00:46:52.082Z,51.63
2024-01-27T00:47:52.434Z,52.97
2024-01-27T00:48:52.248Z,50.53
2024-01-27T00:49:52.374Z,52.47
2024-01-27T00:50:52.283Z,50.14
2024-01-27T00:51:52.315Z,52.32
2024-01-27T00:52:53.546Z,51.01
2024-01-27T00:53:52.440Z,51.84
2024-01-27T00:54:52.699Z,53.25
2024-01-27T00:55:52.525Z,51.25
2024-01-27T00:56:52.582Z,51.65
2024-01-27T00:57:52.587Z,51.08
2024-01-27T00:58:52.585Z,51.10
2024-01-27T00:59:52.677Z,50.88
2024-01-27T01:00:52.760Z,52.00
2024-01-27T01:01:52.735Z,53.62
2024-01-27T01:02:52.849Z,52.92
2024-01-27T01:03:52.994Z,52.83
2024-01-27T01:04:52.900Z,53.70
2024-01-27T01:05:53.017Z,52.13
2024-01-27T01:06:53.083Z,51.89
2024-01-27T01:07:53.047Z,52.78
2024-01-27T01:08:53.150Z,52.18
2024-01-27T01:09:53.174Z,52.69
2024-01-27T01:10:53.239Z,52.81
2024-01-27T01:11:53.334Z,53.41
2024-01-27T01:12:53.315Z,52.50
2024-01-27T01:13:53.372Z,52.03
2024-01-27T01:14:53.439Z,51.39
2024-01-27T01:15:53.526Z,53.71
2024-01-27T01:16:53.515Z,54.60
2024-01-27T01:17:53.569Z,51.54
2024-01-27T01:18:56.245Z,53.63
2024-01-27T01:19:53.606Z,52.07
2024-01-27T01:20:53.627Z,53.09
2024-01-27T01:21:53.589Z,51.33
2024-01-27T01:22:53.550Z,51.94
2024-01-27T01:23:53.603Z,51.71
2024-01-27T01:24:53.589Z,50.03
2024-01-27T01:25:53.551Z,51.53
2024-01-27T01:26:53.671Z,52.35
2024-01-27T01:27:53.577Z,53.09
2024-01-27T01:28:53.655Z,50.00
2024-01-27T01:29:55.601Z,52.84
2024-01-27T01:30:53.590Z,52.53
2024-01-27T01:31:53.590Z,52.04
2024-01-27T01:32:53.782Z,52.50
2024-01-27T01:33:53.643Z,51.08
2024-01-27T01:34:53.620Z,52.68
2024-01-27T01:35:53.752Z,50.00
2024-01-27T01:36:54.734Z,52.44
2024-01-27T01:37:53.797Z,54.17
2024-01-27T01:38:53.843Z,53.45
2024-01-27T01:39:53.900Z,53.20
2024-01-27T01:40:53.898Z,53.11
2024-01-27T01:41:53.996Z,51.56
2024-01-27T01:42:53.993Z,54.03
2024-01-27T01:43:54.004Z,50.89
2024-01-27T01:44:54.077Z,51.48
2024-01-27T01:45:54.081Z,53.36
2024-01-27T01:46:54.129Z,52.42
2024-01-27T01:47:54.427Z,51.44
2024-01-27T01:48:54.346Z,52.06
2024-01-27T01:49:54.308Z,51.34
2024-01-27T01:50:54.307Z,53.90
2024-01-27T01:51:54.273Z,51.83
2024-01-27T01:52:54.335Z,51.27
2024-01-27T01:53:54.395Z,52.10
2024-01-27T01:54:54.412Z,52.45
2024-01-27T01:55:54.416Z,51.67
2024-01-27T01:56:54.452Z,51.81
2024-01-27T01:57:54.470Z,51.33
2024-01-27T01:58:54.507Z,51.61
2024-01-27T01:59:54.782Z,51.50
2024-01-27T02:00:54.599Z,52.37
2024-01-27T02:01:54.574Z,51.86
2024-01-27T02:02:54.592Z,50.56
2024-01-27T02:03:54.622Z,54.09
2024-01-27T02:04:54.725Z,52.54
2024-01-27T02:05:54.744Z,52.33
2024-01-27T02:06:54.797Z,51.75
2024-01-27T02:07:54.746Z,53.16
2024-01-27T02:08:54.793Z,52.78
2024-01-27T02:09:55.241Z,51.98
2024-01-27T02:10:54.802Z,51.06
2024-01-27T02:11:54.829Z,51.73
2024-01-27T02:12:54.828Z,50.48
2024-01-27T02:13:54.840Z,50.94
2024-01-27T02:14:55.068Z,51.73
2024-01-27T02:15:54.861Z,50.63
2024-01-27T02:16:54.905Z,51.61
2024-01-27T02:17:54.988Z,50.81
2024-01-27T02:18:55.173Z,51.96
2024-01-27T02:19:55.300Z,51.87
2024-01-27T02:20:55.065Z,51.44
2024-01-27T02:21:55.013Z,51.50
2024-01-27T02:22:55.072Z,50.81
2024-01-27T02:23:55.092Z,52.81
2024-01-27T02:24:55.169Z,52.71
2024-01-27T02:25:55.072Z,53.00
2024-01-27T02:26:55.168Z,51.59
2024-01-27T02:27:55.200Z,50.23
2024-01-27T02:28:55.157Z,50.00
2024-01-27T02:29:55.225Z,54.00
2024-01-27T02:30:55.231Z,51.56
2024-01-27T02:31:55.258Z,50.93
2024-01-27T02:32:55.314Z,52.30
2024-01-27T02:33:55.509Z,51.30
2024-01-27T02:34:55.798Z,50.60
2024-01-27T02:35:55.381Z,51.63
2024-01-27T02:36:55.346Z,52.13
2024-01-27T02:37:55.382Z,51.61
2024-01-27T02:38:55.428Z,51.70
2024-01-27T02:39:55.408Z,51.18
2024-01-27T02:40:55.428Z,52.44
2024-01-27T02:41:55.458Z,52.45
2024-01-27T02:42:55.468Z,50.98
2024-01-27T02:43:55.473Z,50.39
2024-01-27T02:44:55.829Z,52.12
2024-01-27T02:45:55.507Z,53.34
2024-01-27T02:46:55.540Z,52.42
2024-01-27T02:47:55.682Z,51.40
2024-01-27T02:48:55.687Z,52.44
2024-01-27T02:49:55.565Z,52.61
2024-01-27T02:50:55.574Z,51.17
2024-01-27T02:51:55.559Z,53.07
2024-01-27T02:52:55.585Z,52.04
2024-01-27T02:53:55.621Z,51.76
2024-01-27T02:54:55.626Z,51.93
2024-01-27T02:55:55.602Z,51.12
2024-01-27T02:56:55.691Z,51.28
2024-01-27T02:57:55.645Z,52.48
2024-01-27T02:58:55.700Z,52.31
2024-01-27T02:59:55.760Z,51.28
2024-01-27T03:00:55.725Z,50.97
2024-01-27T03:01:55.728Z,51.48
2024-01-27T03:02:55.793Z,53.43
2024-01-27T03:03:55.883Z,52.64
2024-01-27T03:04:55.878Z,53.42
2024-01-27T03:05:55.845Z,52.86
2024-01-27T03:06:55.799Z,52.95
2024-01-27T03:07:55.848Z,53.40
2024-01-27T03:08:55.874Z,51.36
2024-01-27T03:09:55.851Z,54.26
2024-01-27T03:10:55.869Z,53.15
2024-01-27T03:11:55.939Z,53.71
2024-01-27T03:12:55.911Z,53.41
2024-01-27T03:13:55.895Z,54.24
2024-01-27T03:14:56.345Z,52.16
2024-01-27T03:15:55.968Z,53.21
2024-01-27T03:16:55.989Z,50.08
2024-01-27T03:17:56.061Z,53.44
2024-01-27T03:18:56.103Z,51.05
2024-01-27T03:19:56.099Z,53.07
2024-01-27T03:20:56.103Z,51.10
2024-01-27T03:21:56.000Z,53.69
2024-01-27T03:22:56.067Z,51.08
2024-01-27T03:23:56.098Z,53.25
2024-01-27T03:24:56.058Z,50.20
2024-01-27T03:25:56.186Z,50.79
2024-01-27T03:26:56.148Z,52.11
2024-01-27T03:27:56.227Z,51.42
2024-01-27T03:28:56.173Z,51.88
2024-01-27T03:29:56.247Z,50.80
2024-01-27T03:30:56.210Z,51.22
2024-01-27T03:31:56.216Z,50.49
2024-01-27T03:32:56.299Z,53.45
2024-01-27T03:33:56.334Z,51.77
2024-01-27T03:34:56.291Z,51.87
2024-01-27T03:35:56.298Z,53.00
2024-01-27T03:36:56.306Z,54.34
2024-01-27T03:37:56.290Z,53.64
2024-01-27T03:38:56.428Z,53.26
2024-01-27T03:39:56.402Z,51.84
2024-01-27T03:40:56.433Z,51.47
2024-01-27T03:41:56.462Z,52.06
2024-01-27T03:42:56.421Z,52.88
2024-01-27T03:43:56.500Z,52.14
2024-01-27T03:44:56.593Z,51.57
2024-01-27T03:45:56.510Z,54.45
2024-01-27T03:46:56.513Z,52.90
2024-01-27T03:47:56.649Z,52.47
2024-01-27T03:48:56.607Z,52.50
2024-01-27T03:49:56.870Z,50.96
2024-01-27T03:50:56.627Z,55.32
2024-01-27T03:51:56.605Z,51.86
2024-01-27T03:52:56.671Z,52.08
2024-01-27T03:53:56.666Z,51.85
2024-01-27T03:54:56.672Z,51.92
2024-01-27T03:55:56.645Z,52.10
2024-01-27T03:56:56.726Z,53.04
2024-01-27T03:57:56.727Z,51.61
2024-01-27T03:58:56.766Z,51.60
2024-01-27T03:59:56.838Z,53.01
2024-01-27T04:00:56.879Z,52.15
2024-01-27T04:01:56.770Z,52.15
2024-01-27T04:02:56.818Z,53.23
2024-01-27T04:03:56.862Z,53.02
2024-01-27T04:04:57.266Z,52.04
2024-01-27T04:05:56.985Z,52.97
2024-01-27T04:06:56.912Z,52.38
2024-01-27T04:07:56.874Z,53.50
2024-01-27T04:08:56.984Z,52.45
2024-01-27T04:09:56.960Z,51.64
2024-01-27T04:10:56.940Z,53.07
2024-01-27T04:11:56.962Z,51.72
2024-01-27T04:12:57.046Z,53.27
2024-01-27T04:13:57.013Z,51.23
2024-01-27T04:14:57.328Z,54.82
2024-01-27T04:15:57.060Z,52.73
2024-01-27T04:16:57.075Z,52.04
2024-01-27T04:17:57.186Z,52.65
2024-01-27T04:18:57.192Z,52.27
2024-01-27T04:19:57.135Z,52.71
2024-01-27T04:20:57.132Z,52.99
2024-01-27T04:21:57.119Z,52.74
2024-01-27T04:22:57.115Z,51.43
2024-01-27T04:23:57.255Z,51.69
2024-01-27T04:24:57.286Z,52.19
2024-01-27T04:25:57.153Z,50.00
2024-01-27T04:26:57.233Z,53.02
2024-01-27T04:27:57.216Z,53.22
2024-01-27T04:28:57.249Z,50.54
2024-01-27T04:29:57.316Z,52.00
2024-01-27T04:30:57.248Z,51.06
2024-01-27T04:31:57.258Z,53.03
2024-01-27T04:32:57.417Z,51.64
2024-01-27T04:33:57.337Z,50.29
2024-01-27T04:34:57.805Z,50.00
2024-01-27T04:35:57.336Z,52.71
2024-01-27T04:36:57.364Z,50.34
2024-01-27T04:37:57.352Z,50.77
2024-01-27T04:38:57.421Z,50.46
2024-01-27T04:39:57.360Z,52.97
2024-01-27T04:40:57.379Z,53.71
2024-01-27T04:41:57.428Z,52.83
2024-01-27T04:42:57.449Z,53.04
2024-01-27T04:43:57.499Z,52.63
2024-01-27T04:45:04.794Z,50.00
2024-01-27T04:46:04.756Z,50.00
2024-01-27T04:47:04.739Z,50.00
2024-01-27T04:48:04.875Z,50.00
2024-01-27T04:49:05.443Z,50.00
2024-01-27T04:50:04.941Z,50.89
2024-01-27T04:51:04.868Z,52.57
2024-01-27T04:52:04.788Z,52.58
2024-01-27T04:53:04.780Z,51.50
2024-01-27T04:54:04.828Z,51.74
2024-01-27T04:55:04.912Z,51.82
2024-01-27T04:56:04.807Z,51.47
2024-01-27T04:57:04.857Z,54.34
2024-01-27T04:58:04.802Z,49.80
2024-01-27T04:59:04.828Z,51.37
2024-01-27T05:00:04.843Z,53.75
2024-01-27T05:01:04.883Z,50.64
2024-01-27T05:02:04.810Z,52.75
2024-01-27T05:03:04.949Z,51.45
2024-01-27T05:04:04.957Z,53.67
2024-01-27T05:05:04.846Z,52.22
2024-01-27T05:06:04.911Z,54.29
2024-01-27T05:07:04.919Z,52.15
2024-01-27T05:08:04.861Z,52.67
2024-01-27T05:09:04.858Z,51.02
2024-01-27T05:10:04.853Z,53.55
2024-01-27T05:11:04.817Z,53.08
2024-01-27T05:12:04.910Z,52.01
2024-01-27T05:13:04.834Z,54.22
2024-01-27T05:14:04.832Z,55.23
2024-01-27T05:15:04.882Z,53.21
2024-01-27T05:16:04.892Z,51.44
2024-01-27T05:17:04.834Z,52.68
2024-01-27T05:18:04.921Z,52.26
2024-01-27T05:19:04.953Z,52.74
2024-01-27T05:20:05.013Z,51.79
2024-01-27T05:21:04.860Z,52.90
2024-01-27T05:22:04.803Z,54.79
2024-01-27T05:23:04.875Z,51.81
2024-01-27T05:24:04.947Z,51.37
2024-01-27T05:25:04.915Z,52.06
2024-01-27T05:26:04.829Z,52.55
2024-01-27T05:27:04.931Z,51.37
2024-01-27T05:28:04.837Z,52.10
2024-01-27T05:29:04.882Z,53.53
2024-01-27T05:30:04.894Z,51.74
2024-01-27T05:31:04.858Z,52.90
2024-01-27T05:32:04.860Z,51.90
2024-01-27T05:33:04.928Z,51.51
2024-01-27T05:34:04.966Z,52.37
2024-01-27T05:35:04.902Z,53.51
2024-01-27T05:36:04.905Z,52.15
2024-01-27T05:37:04.845Z,52.60
2024-01-27T05:38:04.851Z,55.56
2024-01-27T05:39:04.881Z,54.66
2024-01-27T05:40:04.927Z,52.59
2024-01-27T05:41:04.844Z,54.26
2024-01-27T05:42:04.866Z,53.78
2024-01-27T05:43:04.899Z,52.63
2024-01-27T05:44:04.862Z,53.65
2024-01-27T05:45:04.920Z,53.12
2024-01-27T05:46:04.858Z,52.76
2024-01-27T05:47:06.101Z,52.58
2024-01-27T05:48:05.022Z,51.37
2024-01-27T05:49:05.299Z,55.09
2024-01-27T05:50:04.876Z,52.54
2024-01-27T05:51:05.026Z,55.93
2024-01-27T05:52:04.897Z,55.79
2024-01-27T05:53:04.912Z,53.99
2024-01-27T05:54:06.258Z,53.78
2024-01-27T05:55:05.427Z,54.38
2024-01-27T05:56:05.029Z,53.02
2024-01-27T05:57:05.141Z,52.44
2024-01-27T05:58:05.084Z,52.41
2024-01-27T05:59:05.078Z,53.06
2024-01-27T06:00:05.133Z,53.72
2024-01-27T06:01:05.149Z,52.94
2024-01-27T06:02:05.106Z,54.68
2024-01-27T06:03:05.364Z,53.29
2024-01-27T06:04:05.256Z,51.24
2024-01-27T06:05:05.438Z,53.10
2024-01-27T06:06:05.350Z,52.40
2024-01-27T06:07:05.471Z,54.70
2024-01-27T06:08:05.258Z,53.10
2024-01-27T06:09:05.951Z,53.09
2024-01-27T06:10:05.279Z,52.31
2024-01-27T06:11:08.110Z,52.64
2024-01-27T06:12:05.325Z,52.67
2024-01-27T06:13:05.350Z,51.91
2024-01-27T06:14:05.298Z,53.51
2024-01-27T06:15:05.488Z,51.20
2024-01-27T06:16:05.320Z,52.94
2024-01-27T06:17:05.321Z,54.04
2024-01-27T06:18:05.460Z,53.81
2024-01-27T06:19:05.525Z,52.51
2024-01-27T06:20:07.102Z,53.61
2024-01-27T06:21:05.448Z,53.52
2024-01-27T06:22:06.703Z,54.14
2024-01-27T06:23:05.306Z,50.96
2024-01-27T06:24:05.320Z,52.75
2024-01-27T06:25:05.306Z,53.35
2024-01-27T06:26:05.381Z,51.41
2024-01-27T06:27:05.351Z,53.06
2024-01-27T06:28:05.329Z,53.14
2024-01-27T06:29:05.342Z,53.42
2024-01-27T06:30:05.332Z,53.86
2024-01-27T06:31:05.368Z,53.16
2024-01-27T06:32:05.347Z,53.39
2024-01-27T06:33:05.467Z,53.26
2024-01-27T06:34:05.445Z,53.91
2024-01-27T06:35:05.488Z,54.14
2024-01-27T06:36:05.388Z,53.04
2024-01-27T06:37:05.349Z,53.92
2024-01-27T06:38:05.326Z,56.55
2024-01-27T06:39:05.413Z,55.80
2024-01-27T06:40:05.411Z,52.61
2024-01-27T06:41:05.381Z,53.07
2024-01-27T06:42:05.440Z,53.55
2024-01-27T06:43:05.402Z,53.35
2024-01-27T06:44:05.400Z,55.06
2024-01-27T06:45:05.452Z,53.97
2024-01-27T06:46:05.473Z,55.49
2024-01-27T06:47:05.486Z,53.48
2024-01-27T06:48:05.639Z,52.92
2024-01-27T06:49:05.655Z,51.13
2024-01-27T06:50:05.589Z,51.54
2024-01-27T06:51:05.570Z,53.66
2024-01-27T06:52:05.587Z,54.35
2024-01-27T06:53:05.590Z,54.51
2024-01-27T06:54:05.673Z,57.55
2024-01-27T06:55:05.952Z,57.46
2024-01-27T06:56:05.680Z,56.65
2024-01-27T06:57:05.749Z,58.11
2024-01-27T06:58:05.662Z,57.58
2024-01-27T06:59:05.736Z,61.00
2024-01-27T07:00:05.751Z,60.89
2024-01-27T07:01:05.790Z,62.65
2024-01-27T07:02:05.739Z,63.75
2024-01-27T07:03:05.973Z,64.12
2024-01-27T07:04:05.847Z,63.30
2024-01-27T07:05:05.817Z,64.27
2024-01-27T07:06:05.929Z,65.49
2024-01-27T07:07:05.904Z,64.39
2024-01-27T07:08:05.865Z,66.43
2024-01-27T07:09:05.973Z,68.80
2024-01-27T07:10:05.976Z,69.62
2024-01-27T07:11:05.946Z,71.86
2024-01-27T07:12:06.049Z,69.62
2024-01-27T07:13:06.104Z,70.02
2024-01-27T07:14:06.108Z,71.15
2024-01-27T07:15:06.152Z,72.64
2024-01-27T07:16:06.242Z,70.61
2024-01-27T07:17:06.250Z,71.91
2024-01-27T07:18:06.743Z,74.71
2024-01-27T07:19:06.448Z,75.90
2024-01-27T07:20:06.486Z,74.93
2024-01-27T07:21:09.290Z,75.04
2024-01-27T07:22:06.528Z,77.66
2024-01-27T07:23:06.505Z,78.63
2024-01-27T07:24:06.552Z,80.20
2024-01-27T07:25:06.517Z,77.90
2024-01-27T07:26:06.545Z,81.35
2024-01-27T07:27:06.552Z,81.97
2024-01-27T07:28:06.597Z,82.41
2024-01-27T07:29:06.602Z,81.47
2024-01-27T07:30:06.697Z,81.72
2024-01-27T07:31:06.534Z,81.97
2024-01-27T07:32:06.560Z,85.07
2024-01-27T07:33:06.701Z,84.45
2024-01-27T07:34:06.612Z,85.71
2024-01-27T07:35:06.595Z,87.22
2024-01-27T07:36:06.600Z,86.75
2024-01-27T07:37:06.568Z,86.49
2024-01-27T07:38:06.604Z,89.14
2024-01-27T07:39:06.612Z,88.65
2024-01-27T07:40:06.632Z,87.67
2024-01-27T07:41:06.527Z,88.61
2024-01-27T07:42:06.591Z,89.68
2024-01-27T07:43:06.611Z,92.29
2024-01-27T07:44:06.542Z,92.00
2024-01-27T07:45:06.656Z,91.95
2024-01-27T07:46:06.571Z,91.02
2024-01-27T07:47:06.541Z,90.67
2024-01-27T07:48:06.695Z,91.97
2024-01-27T07:49:06.610Z,90.94
2024-01-27T07:50:06.645Z,91.79
2024-01-27T07:51:06.659Z,93.71
2024-01-27T07:52:06.561Z,94.97
2024-01-27T07:53:06.576Z,94.15
2024-01-27T07:54:06.613Z,94.14
2024-01-27T07:55:07.010Z,95.47
2024-01-27T07:56:08.619Z,93.65
2024-01-27T07:57:06.636Z,96.48
2024-01-27T07:58:07.484Z,95.82
2024-01-27T07:59:06.656Z,95.47
2024-01-27T08:00:07.023Z,97.23
2024-01-27T08:01:06.746Z,95.68
2024-01-27T08:02:06.791Z,97.87
2024-01-27T08:03:06.904Z,97.94
2024-01-27T08:04:06.993Z,98.36
2024-01-27T08:05:07.001Z,100.41
2024-01-27T08:06:07.035Z,99.61
2024-01-27T08:07:07.138Z,100.82
2024-01-27T08:08:07.093Z,101.34
2024-01-27T08:09:07.194Z,101.70
2024-01-27T08:10:07.530Z,103.96
2024-01-27T08:11:07.190Z,103.64
2024-01-27T08:12:07.311Z,104.66
2024-01-27T08:13:07.325Z,104.44
2024-01-27T08:14:07.378Z,104.48
2024-01-27T08:15:07.409Z,102.92
2024-01-27T08:16:07.451Z,104.25
2024-01-27T08:17:07.482Z,104.62
2024-01-27T08:18:07.692Z,105.69
2024-01-27T08:19:07.698Z,105.25
2024-01-27T08:20:07.745Z,107.41
2024-01-27T08:21:07.702Z,103.92
2024-01-27T08:22:07.753Z,104.89
2024-01-27T08:23:07.947Z,105.69
2024-01-27T08:24:07.893Z,105.54
2024-01-27T08:25:07.849Z,106.56
2024-01-27T08:26:07.928Z,106.17
2024-01-27T08:27:07.947Z,105.91
2024-01-27T08:28:07.999Z,105.46
2024-01-27T08:29:08.044Z,106.74
2024-01-27T08:30:08.149Z,105.25
2024-01-27T08:31:08.157Z,106.87
2024-01-27T08:32:08.271Z,107.30
2024-01-27T08:33:08.417Z,105.76
2024-01-27T08:34:08.476Z,105.92
2024-01-27T08:35:11.351Z,104.91
2024-01-27T08:36:08.412Z,107.81
2024-01-27T08:37:08.399Z,107.14
2024-01-27T08:38:08.409Z,107.47
2024-01-27T08:39:08.396Z,106.40
2024-01-27T08:40:08.395Z,105.91
2024-01-27T08:41:08.368Z,106.26
2024-01-27T08:42:08.404Z,106.46
2024-01-27T08:43:08.380Z,107.33
2024-01-27T08:44:08.481Z,106.82
2024-01-27T08:45:08.451Z,107.71
2024-01-27T08:46:08.398Z,108.45
2024-01-27T08:47:08.867Z,107.86
2024-01-27T08:48:08.558Z,108.04
2024-01-27T08:49:08.468Z,106.90
2024-01-27T08:50:08.558Z,105.94
2024-01-27T08:51:08.417Z,105.83
2024-01-27T08:52:08.412Z,106.59
2024-01-27T08:53:08.437Z,105.99
2024-01-27T08:54:08.521Z,106.81
2024-01-27T08:55:08.473Z,106.34
2024-01-27T08:56:08.424Z,105.89
2024-01-27T08:57:08.428Z,105.34
2024-01-27T08:58:08.407Z,105.52
2024-01-27T08:59:08.411Z,106.11
2024-01-27T09:00:08.440Z,104.90
2024-01-27T09:01:08.492Z,104.83
2024-01-27T09:02:08.409Z,103.68
2024-01-27T09:03:08.498Z,104.26
2024-01-27T09:04:08.454Z,106.29
2024-01-27T09:05:08.448Z,105.33
2024-01-27T09:06:08.507Z,106.00
2024-01-27T09:07:08.433Z,104.21
2024-01-27T09:08:08.396Z,105.39
2024-01-27T09:09:08.434Z,104.56
2024-01-27T09:10:08.421Z,105.71
2024-01-27T09:11:08.429Z,104.28
2024-01-27T09:12:08.526Z,103.75
2024-01-27T09:13:08.545Z,104.05
2024-01-27T09:14:08.685Z,104.05
2024-01-27T09:15:08.769Z,104.26
2024-01-27T09:16:08.837Z,104.74
2024-01-27T09:17:08.792Z,102.96
2024-01-27T09:18:09.050Z,102.26
2024-01-27T09:19:08.973Z,101.01
2024-01-27T09:20:09.020Z,99.43
2024-01-27T09:21:09.035Z,98.19
2024-01-27T09:22:09.070Z,101.57
2024-01-27T09:23:09.090Z,102.08
2024-01-27T09:24:09.154Z,102.82
2024-01-27T09:25:09.261Z,104.33
2024-01-27T09:26:09.268Z,104.26
2024-01-27T09:27:09.298Z,100.79
2024-01-27T09:28:09.364Z,102.71
2024-01-27T09:29:09.400Z,103.16
2024-01-27T09:30:09.501Z,100.58
2024-01-27T09:31:09.521Z,101.84
2024-01-27T09:32:09.563Z,101.29
2024-01-27T09:33:09.820Z,101.46
2024-01-27T09:34:09.936Z,102.47
2024-01-27T09:35:09.739Z,105.30
2024-01-27T09:36:09.824Z,101.41
2024-01-27T09:37:09.890Z,102.90
2024-01-27T09:38:09.908Z,102.69
2024-01-27T09:39:09.995Z,99.69
2024-01-27T09:40:09.991Z,99.12
2024-01-27T09:41:09.989Z,100.29
2024-01-27T09:42:10.101Z,100.51
2024-01-27T09:43:10.072Z,98.20
2024-01-27T09:44:10.104Z,98.93
2024-01-27T09:45:10.164Z,98.86
2024-01-27T09:46:10.153Z,99.29
2024-01-27T09:47:10.221Z,100.27
2024-01-27T09:48:10.324Z,102.61
2024-01-27T09:49:10.412Z,102.78
2024-01-27T09:50:10.338Z,103.67
2024-01-27T09:51:10.405Z,102.36
2024-01-27T09:52:10.413Z,103.32
2024-01-27T09:53:10.494Z,102.31
2024-01-27T09:54:10.514Z,101.98
2024-01-27T09:55:10.490Z,100.41
2024-01-27T09:56:10.557Z,101.78
2024-01-27T09:57:10.648Z,102.02
2024-01-27T09:58:10.672Z,100.98
2024-01-27T09:59:10.693Z,100.34
2024-01-27T10:00:10.736Z,98.09
2024-01-27T10:01:10.740Z,94.60
2024-01-27T10:02:10.747Z,90.81
2024-01-27T10:03:10.841Z,89.32
2024-01-27T10:04:10.867Z,88.27
2024-01-27T10:05:10.809Z,89.64
2024-01-27T10:06:10.915Z,90.89
2024-01-27T10:07:10.933Z,94.39
2024-01-27T10:08:10.881Z,97.25
2024-01-27T10:09:11.021Z,101.38
2024-01-27T10:10:10.914Z,101.40
2024-01-27T10:11:10.926Z,100.09
2024-01-27T10:12:11.032Z,99.78
2024-01-27T10:13:10.994Z,98.66
2024-01-27T10:14:11.093Z,99.29
2024-01-27T10:15:11.086Z,98.03
2024-01-27T10:16:11.158Z,99.98
2024-01-27T10:17:11.171Z,99.66
2024-01-27T10:18:11.314Z,97.19
2024-01-27T10:19:12.141Z,98.42
2024-01-27T10:20:11.524Z,97.05
2024-01-27T10:21:11.328Z,96.42
2024-01-27T10:22:11.404Z,95.50
2024-01-27T10:23:11.378Z,95.88
2024-01-27T10:24:11.492Z,95.52
2024-01-27T10:25:11.498Z,94.60
2024-01-27T10:26:11.550Z,94.68
2024-01-27T10:27:11.548Z,91.62
2024-01-27T10:28:11.630Z,90.87
2024-01-27T10:29:11.704Z,91.78
2024-01-27T10:30:11.742Z,88.68
2024-01-27T10:31:11.823Z,88.89
2024-01-27T10:32:11.851Z,89.64
2024-01-27T10:33:12.180Z,86.39
2024-01-27T10:34:12.121Z,85.61
2024-01-27T10:35:12.101Z,84.95
2024-01-27T10:36:12.188Z,88.84
2024-01-27T10:37:12.164Z,86.78
2024-01-27T10:38:12.198Z,85.48
2024-01-27T10:39:12.251Z,86.30
2024-01-27T10:40:12.349Z,85.65
2024-01-27T10:41:12.354Z,86.01
2024-01-27T10:42:12.509Z,87.03
2024-01-27T10:43:12.476Z,86.27
2024-01-27T10:44:12.527Z,86.53
2024-01-27T10:45:12.637Z,87.62
2024-01-27T10:46:12.651Z,85.94
2024-01-27T10:47:12.684Z,86.55
2024-01-27T10:48:12.908Z,86.91
2024-01-27T10:49:12.904Z,85.82
2024-01-27T10:50:12.878Z,84.21
2024-01-27T10:51:12.999Z,83.62
2024-01-27T10:52:13.008Z,84.51
2024-01-27T10:53:13.030Z,84.29
2024-01-27T10:54:13.181Z,85.16
2024-01-27T10:55:13.141Z,83.95
2024-01-27T10:56:13.184Z,83.30
2024-01-27T10:57:13.323Z,82.79
2024-01-27T10:58:13.315Z,81.25
2024-01-27T10:59:13.417Z,84.09
2024-01-27T11:00:13.584Z,86.59
2024-01-27T11:01:13.753Z,88.62
2024-01-27T11:02:13.616Z,89.28
2024-01-27T11:03:13.687Z,86.22
2024-01-27T11:04:13.746Z,87.16
2024-01-27T11:05:13.827Z,100.75
2024-01-27T11:06:13.941Z,114.45
2024-01-27T11:07:13.921Z,142.46
2024-01-27T11:08:13.959Z,145.95
2024-01-27T11:09:14.060Z,141.28
2024-01-27T11:10:14.142Z,158.32
2024-01-27T11:11:14.194Z,180.54
2024-01-27T11:12:14.340Z,187.39
2024-01-27T11:13:14.277Z,192.09
2024-01-27T11:14:14.334Z,192.58
2024-01-27T11:15:14.422Z,184.77
2024-01-27T11:16:14.391Z,174.71
2024-01-27T11:17:14.445Z,165.95
2024-01-27T11:18:15.316Z,163.23
2024-01-27T11:19:14.661Z,159.28
2024-01-27T11:20:14.524Z,156.62
2024-01-27T11:21:14.510Z,151.01
2024-01-27T11:22:14.534Z,147.05
2024-01-27T11:23:14.564Z,140.63
2024-01-27T11:24:14.589Z,136.38
2024-01-27T11:25:14.559Z,134.52
2024-01-27T11:26:14.573Z,132.48
2024-01-27T11:27:14.640Z,131.37
2024-01-27T11:28:14.689Z,130.73
2024-01-27T11:29:14.671Z,130.15
2024-01-27T11:30:14.811Z,130.95
2024-01-27T11:31:14.830Z,131.16
2024-01-27T11:32:15.548Z,131.55
2024-01-27T11:33:15.029Z,131.76
2024-01-27T11:34:15.120Z,129.25
2024-01-27T11:35:15.618Z,130.16
2024-01-27T11:36:15.196Z,130.42
2024-01-27T11:37:15.261Z,129.89
2024-01-27T11:38:15.300Z,128.02
2024-01-27T11:39:15.371Z,125.52
2024-01-27T11:40:15.425Z,124.63
2024-01-27T11:41:15.497Z,125.88
2024-01-27T11:42:15.890Z,125.90
2024-01-27T11:43:15.683Z,125.66
2024-01-27T11:44:15.659Z,121.63
2024-01-27T11:45:16.145Z,123.91
2024-01-27T11:46:15.765Z,124.73
2024-01-27T11:47:15.833Z,122.23
2024-01-27T11:48:15.965Z,121.09
2024-01-27T11:49:15.999Z,121.26
2024-01-27T11:50:16.091Z,121.91
2024-01-27T11:51:16.063Z,121.49
2024-01-27T11:52:16.120Z,120.33
2024-01-27T11:53:16.173Z,118.84
2024-01-27T11:54:16.225Z,119.42
2024-01-27T11:55:16.340Z,117.18
2024-01-27T11:56:16.317Z,117.50
2024-01-27T11:57:16.394Z,118.00
2024-01-27T11:58:16.413Z,116.75
2024-01-27T11:59:16.467Z,115.82
2024-01-27T12:00:16.611Z,113.03
2024-01-27T12:01:16.562Z,117.44
2024-01-27T12:02:16.639Z,115.21
2024-01-27T12:03:16.694Z,115.58
2024-01-27T12:04:16.692Z,112.80
2024-01-27T12:05:16.820Z,113.61
2024-01-27T12:06:17.021Z,113.14
2024-01-27T12:07:17.049Z,112.93
2024-01-27T12:08:16.929Z,113.57
2024-01-27T12:09:16.998Z,113.06
2024-01-27T12:10:17.044Z,111.56
2024-01-27T12:11:18.858Z,112.66
2024-01-27T12:12:17.199Z,111.99
2024-01-27T12:13:17.068Z,111.18
2024-01-27T12:14:17.068Z,110.94
2024-01-27T12:15:17.178Z,111.00
2024-01-27T12:16:17.110Z,109.87
2024-01-27T12:17:17.124Z,109.77
2024-01-27T12:18:21.064Z,109.47
2024-01-27T12:19:18.139Z,109.63
2024-01-27T12:20:17.125Z,109.83
2024-01-27T12:21:17.143Z,110.33
2024-01-27T12:22:17.091Z,109.08
2024-01-27T12:23:17.145Z,109.03
2024-01-27T12:24:20.043Z,108.70
2024-01-27T12:25:18.683Z,108.73
2024-01-27T12:26:17.119Z,108.90
2024-01-27T12:27:17.166Z,107.54
2024-01-27T12:28:17.127Z,108.25
2024-01-27T12:29:17.113Z,106.80
2024-01-27T12:30:17.677Z,106.43
2024-01-27T12:31:17.160Z,106.21
2024-01-27T12:32:17.123Z,104.69
2024-01-27T12:33:17.282Z,107.49
2024-01-27T12:34:19.603Z,105.27
2024-01-27T12:35:17.801Z,105.31
2024-01-27T12:36:17.166Z,105.37
2024-01-27T12:37:17.126Z,105.18
2024-01-27T12:38:17.162Z,103.92
2024-01-27T12:39:17.221Z,105.00
2024-01-27T12:40:19.213Z,104.74
2024-01-27T12:41:17.134Z,103.93
2024-01-27T12:42:17.186Z,103.34
2024-01-27T12:43:17.151Z,103.88
2024-01-27T12:44:17.123Z,103.00
2024-01-27T12:45:17.706Z,102.72
2024-01-27T12:46:17.160Z,101.73